Time;durP1;ratioP1;P1;durP2;ratioP2;P2;SDS_P1;SDS_P2;PMS_P1;PMS_P2;Temp;Humidity;BMP_temperature;BMP_pressure;BME280_temperature;BME280_humidity;BME280_pressure;Samples;Min_cycle;Max_cycle;Signal;HPM_P1;HPM_P2
2024/01/12 00:01:46;;;;;;;10.40;1.00;;;17.10;39.80;;;;;;5129095;27;20072;-54
2024/01/12 00:04:12;;;;;;;9.60;1.00;;;17.10;39.90;;;;;;5128618;27;20540;-53
2024/01/12 00:06:39;;;;;;;11.60;1.38;;;17.00;39.50;;;;;;5130294;27;20098;-54
2024/01/12 00:09:06;;;;;;;43.20;1.80;;;16.80;39.70;;;;;;5129357;27;20103;-54
2024/01/12 00:11:32;;;;;;;7.90;1.42;;;16.80;40.00;;;;;;5110986;27;20075;-51
2024/01/12 00:13:59;;;;;;;6.35;1.10;;;16.70;39.70;;;;;;5128527;27;20405;-51
2024/01/12 00:16:25;;;;;;;14.98;1.80;;;16.70;39.50;;;;;;5129286;27;20534;-54
2024/01/12 00:18:52;;;;;;;6.03;1.30;;;16.60;39.70;;;;;;5130245;27;20087;-55
2024/01/12 00:21:19;;;;;;;23.80;1.85;;;16.50;39.90;;;;;;5128124;27;20159;-56
2024/01/12 00:23:48;;;;;;;8.45;1.23;;;16.60;40.00;;;;;;5130092;27;20166;-55
2024/01/12 00:26:14;;;;;;;17.38;1.80;;;16.60;40.10;;;;;;5128210;27;20064;-52
2024/01/12 00:28:41;;;;;;;6.93;1.52;;;16.60;39.90;;;;;;5128137;27;20157;-55
2024/01/12 00:31:07;;;;;;;17.52;1.67;;;16.40;39.70;;;;;;5126710;27;20075;-55
2024/01/12 00:33:34;;;;;;;10.27;1.80;;;16.30;39.90;;;;;;5127694;27;20067;-53
2024/01/12 00:36:00;;;;;;;14.68;1.70;;;16.20;40.30;;;;;;5127323;27;20510;-53
2024/01/12 00:38:27;;;;;;;11.50;2.00;;;16.10;40.50;;;;;;5111589;27;20486;-54
2024/01/12 00:40:53;;;;;;;13.85;2.67;;;16.00;40.50;;;;;;5127916;27;20067;-59
2024/01/12 00:43:20;;;;;;;13.40;2.40;;;15.90;40.20;;;;;;5127522;27;20075;-60
2024/01/12 00:45:46;;;;;;;11.32;2.08;;;15.80;40.30;;;;;;5128988;27;20080;-50
2024/01/12 00:48:12;;;;;;;11.38;2.13;;;15.70;40.30;;;;;;5127013;27;20581;-54
2024/01/12 00:50:39;;;;;;;11.15;2.28;;;15.70;41.50;;;;;;5128778;27;20558;-58
2024/01/12 00:53:05;;;;;;;19.15;2.53;;;15.60;41.30;;;;;;5130742;27;20079;-58
2024/01/12 00:55:33;;;;;;;22.67;2.92;;;15.40;41.40;;;;;;5130783;27;20076;-59
2024/01/12 00:57:59;;;;;;;13.43;2.25;;;15.30;41.50;;;;;;5125279;27;20103;-59
2024/01/12 01:00:25;;;;;;;14.20;2.22;;;15.20;41.80;;;;;;5104065;27;20550;-57
2024/01/12 01:02:52;;;;;;;15.55;2.53;;;15.20;42.60;;;;;;5125983;27;20197;-59
2024/01/12 01:05:18;;;;;;;18.42;2.65;;;15.10;42.00;;;;;;5125175;27;20071;-57
2024/01/12 01:07:45;;;;;;;18.38;3.03;;;15.00;42.70;;;;;;5125568;27;20071;-58
2024/01/12 01:10:13;;;;;;;16.70;2.92;;;14.90;43.10;;;;;;5107764;27;20151;-56
2024/01/12 01:12:40;;;;;;;21.23;2.78;;;14.70;43.60;;;;;;5126890;27;20078;-60
2024/01/12 01:15:07;;;;;;;21.05;3.67;;;14.50;44.40;;;;;;5126568;27;20091;-58
2024/01/12 01:17:33;;;;;;;20.95;4.25;;;14.30;44.90;;;;;;5123729;27;20079;-55
2024/01/12 01:20:00;;;;;;;28.25;3.70;;;14.20;45.00;;;;;;5125641;27;20086;-61
2024/01/12 01:22:29;;;;;;;13.63;4.03;;;14.10;45.40;;;;;;5124605;27;20075;-55
2024/01/12 01:24:55;;;;;;;24.15;3.80;;;14.00;45.40;;;;;;5119057;27;20407;-56
2024/01/12 01:27:22;;;;;;;18.92;3.50;;;13.90;46.40;;;;;;5107576;27;20444;-64
2024/01/12 01:29:48;;;;;;;;;;;13.80;46.40;;;;;;5125338;27;20104;-52
2024/01/12 01:32:14;;;;;;;22.67;4.00;;;13.80;46.70;;;;;;5125233;27;20464;-56
2024/01/12 01:34:40;;;;;;;;;;;13.60;46.80;;;;;;5125594;27;20110;-57
2024/01/12 01:37:07;;;;;;;36.00;4.95;;;13.50;46.80;;;;;;5124902;27;19956;-55
2024/01/12 01:39:33;;;;;;;20.88;4.50;;;13.40;48.30;;;;;;5123882;27;20538;-53
2024/01/12 01:42:01;;;;;;;35.50;4.53;;;13.40;48.50;;;;;;5125001;27;20168;-54
2024/01/12 01:44:28;;;;;;;24.70;5.22;;;13.30;48.80;;;;;;5123257;27;20086;-55
2024/01/12 01:46:58;;;;;;;20.88;4.45;;;13.30;48.60;;;;;;5126707;27;20138;-54
2024/01/12 01:49:25;;;;;;;25.77;5.25;;;13.40;48.50;;;;;;5125956;27;20136;-55
2024/01/12 01:51:51;;;;;;;28.23;5.22;;;13.30;48.60;;;;;;5124609;27;20082;-53
2024/01/12 01:54:19;;;;;;;35.22;5.38;;;13.30;49.20;;;;;;5127033;27;20098;-53
2024/01/12 01:56:46;;;;;;;30.25;5.82;;;13.20;49.10;;;;;;5124384;27;20071;-57
2024/01/12 01:59:13;;;;;;;39.47;6.30;;;13.10;49.00;;;;;;5127189;27;20075;-52
2024/01/12 02:01:40;;;;;;;25.55;5.75;;;13.10;49.20;;;;;;5121684;27;20071;-54
2024/01/12 02:04:08;;;;;;;23.80;6.32;;;13.10;49.80;;;;;;5125234;27;20075;-51
2024/01/12 02:06:35;;;;;;;30.25;7.70;;;12.80;50.20;;;;;;5124529;27;20075;-55
2024/01/12 02:09:04;;;;;;;37.45;10.55;;;12.60;50.50;;;;;;5125226;28;20459;-60
2024/01/12 02:11:30;;;;;;;34.10;8.05;;;12.60;50.80;;;;;;5125689;28;20072;-55
2024/01/12 02:13:57;;;;;;;39.55;7.65;;;12.60;51.50;;;;;;5126132;28;20076;-54
2024/01/12 02:16:24;;;;;;;32.97;6.57;;;12.50;52.00;;;;;;5126449;28;20131;-54
2024/01/12 02:18:50;;;;;;;40.30;6.55;;;12.50;51.80;;;;;;5122525;28;20071;-58
2024/01/12 02:21:17;;;;;;;33.47;7.05;;;12.40;52.00;;;;;;5124739;28;20094;-58
2024/01/12 02:23:43;;;;;;;37.78;7.07;;;12.30;52.10;;;;;;5122333;28;20523;-52
2024/01/12 02:26:10;;;;;;;37.22;7.75;;;12.30;53.40;;;;;;5107487;28;20076;-59
2024/01/12 02:28:36;;;;;;;37.83;8.30;;;12.10;53.90;;;;;;5125903;28;20073;-56
2024/01/12 02:31:03;;;;;;;37.15;8.52;;;12.00;53.70;;;;;;5123520;28;20072;-61
2024/01/12 02:33:29;;;;;;;42.33;10.65;;;12.00;53.00;;;;;;5123237;28;20072;-53
2024/01/12 02:35:55;;;;;;;;;;;11.90;53.10;;;;;;5126236;28;20169;-58
2024/01/12 02:38:22;;;;;;;45.42;10.43;;;11.80;53.60;;;;;;5126282;28;20008;-64
2024/01/12 02:40:48;;;;;;;73.13;12.07;;;11.90;54.30;;;;;;5124526;28;20064;-58
2024/01/12 02:43:15;;;;;;;57.35;11.82;;;12.00;54.70;;;;;;5124388;28;20382;-64
2024/01/12 02:45:41;;;;;;;;;;;11.80;53.60;;;;;;5125101;28;20537;-50
2024/01/12 02:48:07;;;;;;;60.25;14.57;;;11.80;53.40;;;;;;5125056;28;19987;-64
2024/01/12 02:50:34;;;;;;;67.45;14.10;;;11.70;53.60;;;;;;5122041;28;20104;-50
2024/01/12 02:53:00;;;;;;;45.75;12.73;;;11.60;55.20;;;;;;5105996;28;20080;-53
2024/01/12 02:55:26;;;;;;;74.22;15.18;;;11.50;55.00;;;;;;5121659;28;20115;-65
2024/01/12 02:57:53;;;;;;;;;;;11.50;54.90;;;;;;5126343;28;20130;-57
2024/01/12 03:00:19;;;;;;;76.90;18.15;;;11.50;55.30;;;;;;5124298;28;20449;-62
2024/01/12 03:02:46;;;;;;;95.22;17.50;;;11.50;55.80;;;;;;5126765;27;20076;-58
2024/01/12 03:05:12;;;;;;;68.50;19.25;;;11.50;55.60;;;;;;5128164;27;20111;-51
2024/01/12 03:07:38;;;;;;;85.30;20.80;;;11.40;55.70;;;;;;5127103;27;20369;-55
2024/01/12 03:10:06;;;;;;;101.88;20.88;;;11.40;55.60;;;;;;5128878;27;20096;-53
2024/01/12 03:12:32;;;;;;;85.00;19.55;;;11.40;56.00;;;;;;5131116;27;20606;-65
2024/01/12 03:14:58;;;;;;;110.63;22.10;;;11.30;57.10;;;;;;5125342;27;20460;-54
2024/01/12 03:17:25;;;;;;;82.95;20.63;;;11.10;57.20;;;;;;5130212;27;20121;-59
2024/01/12 03:19:51;;;;;;;88.38;21.10;;;11.00;56.80;;;;;;5127894;27;20079;-59
2024/01/12 03:22:18;;;;;;;85.25;20.25;;;11.00;57.00;;;;;;5127796;27;20496;-56
2024/01/12 03:24:44;;;;;;;98.15;21.42;;;11.10;57.30;;;;;;5127659;27;20513;-58
2024/01/12 03:27:10;;;;;;;;;;;11.10;56.80;;;;;;5126549;27;20100;-63
2024/01/12 03:29:37;;;;;;;136.13;32.63;;;11.10;56.80;;;;;;5126218;27;19987;-63
2024/01/12 03:32:03;;;;;;;120.63;33.17;;;11.00;57.00;;;;;;5125680;27;20072;-56
2024/01/12 03:34:30;;;;;;;146.18;37.15;;;11.00;57.20;;;;;;5129552;27;20193;-55
2024/01/12 03:36:56;;;;;;;130.85;35.33;;;11.00;57.60;;;;;;5111191;27;20082;-56
2024/01/12 03:39:23;;;;;;;139.68;35.53;;;11.00;57.60;;;;;;5126466;27;20200;-56
2024/01/12 03:41:49;;;;;;;104.57;36.25;;;10.90;57.70;;;;;;5127760;27;20190;-54
2024/01/12 03:44:16;;;;;;;131.82;38.38;;;10.80;58.20;;;;;;5126705;27;20531;-56
2024/01/12 03:46:42;;;;;;;143.35;39.92;;;10.80;58.30;;;;;;5111850;27;20075;-67
2024/01/12 03:49:09;;;;;;;133.00;41.00;;;10.90;58.20;;;;;;5107740;28;21480;-55
2024/01/12 03:51:36;;;;;;;124.45;41.63;;;11.00;58.20;;;;;;5107224;28;20072;-56
2024/01/12 03:54:03;;;;;;;122.10;40.92;;;10.90;58.50;;;;;;5106894;28;20064;-57
2024/01/12 03:56:29;;;;;;;158.50;56.13;;;10.80;60.00;;;;;;5103446;28;20079;-59
2024/01/12 03:58:56;;;;;;;148.90;54.28;;;10.70;59.60;;;;;;5105886;28;20099;-56
2024/01/12 04:01:23;;;;;;;159.43;54.38;;;10.60;59.60;;;;;;5108059;28;20098;-65
2024/01/12 04:03:49;;;;;;;169.38;58.55;;;10.70;59.30;;;;;;5101518;28;20092;-53
2024/01/12 04:06:16;;;;;;;162.38;50.60;;;10.80;59.80;;;;;;5105192;28;20078;-56
2024/01/12 04:08:42;;;;;;;180.25;55.25;;;10.80;60.20;;;;;;5104147;28;20179;-58
2024/01/12 04:11:09;;;;;;;191.07;57.30;;;10.70;59.50;;;;;;5105845;28;20543;-58
2024/01/12 04:13:37;;;;;;;167.35;58.58;;;10.60;60.90;;;;;;5103618;28;20072;-58
2024/01/12 04:16:04;;;;;;;190.52;62.63;;;10.50;61.50;;;;;;5104609;28;20064;-67
2024/01/12 04:18:31;;;;;;;204.00;62.05;;;10.50;61.00;;;;;;5105205;28;20174;-65
2024/01/12 04:20:58;;;;;;;199.20;64.07;;;10.60;60.90;;;;;;5105026;28;20083;-61
2024/01/12 04:23:24;;;;;;;196.23;60.58;;;10.60;60.40;;;;;;5104535;28;20569;-60
2024/01/12 04:25:51;;;;;;;191.60;64.03;;;10.50;62.20;;;;;;5101930;28;20091;-52
2024/01/12 04:28:17;;;;;;;230.98;66.40;;;10.50;62.50;;;;;;5102995;28;20075;-55
2024/01/12 04:30:44;;;;;;;222.65;63.22;;;10.50;61.80;;;;;;5101597;28;20147;-57
2024/01/12 04:33:10;;;;;;;215.13;64.35;;;10.40;61.40;;;;;;5101329;28;20072;-59
2024/01/12 04:35:37;;;;;;;207.88;60.95;;;10.30;61.60;;;;;;5101608;28;20454;-68
2024/01/12 04:38:03;;;;;;;221.35;60.33;;;10.20;62.70;;;;;;5102960;28;20076;-50
2024/01/12 04:40:30;;;;;;;204.85;59.10;;;10.20;62.90;;;;;;5100746;28;20080;-54
2024/01/12 04:42:56;;;;;;;206.93;60.65;;;10.20;62.80;;;;;;5101050;28;20073;-52
2024/01/12 04:45:23;;;;;;;248.55;61.88;;;10.20;62.90;;;;;;5100493;28;20069;-67
2024/01/12 04:47:49;;;;;;;212.82;58.88;;;10.20;62.80;;;;;;5102580;27;20084;-57
2024/01/12 04:50:16;;;;;;;202.45;60.03;;;10.30;63.10;;;;;;5122631;27;20102;-60
2024/01/12 04:52:42;;;;;;;232.43;59.75;;;10.30;62.90;;;;;;5121958;27;20072;-66
2024/01/12 04:55:09;;;;;;;259.83;67.32;;;10.20;63.40;;;;;;5102688;27;20103;-58
2024/01/12 04:57:35;;;;;;;242.38;67.90;;;10.00;62.60;;;;;;5120987;27;20125;-69
2024/01/12 05:00:02;;;;;;;221.90;67.13;;;10.00;63.40;;;;;;5122560;27;20102;-56
2024/01/12 05:02:28;;;;;;;262.17;69.50;;;10.00;64.20;;;;;;5119451;27;20076;-55
2024/01/12 05:04:55;;;;;;;244.02;71.47;;;9.90;63.80;;;;;;5127632;27;20090;-62
2024/01/12 05:07:21;;;;;;;248.85;72.68;;;10.00;64.40;;;;;;5128731;27;20082;-56
2024/01/12 05:09:47;;;;;;;291.90;76.60;;;10.10;64.40;;;;;;5128426;27;20130;-57
2024/01/12 05:12:14;;;;;;;273.80;77.57;;;9.90;63.70;;;;;;5127333;27;20425;-53
2024/01/12 05:14:41;;;;;;;256.33;78.25;;;9.90;63.80;;;;;;5127408;27;20082;-53
2024/01/12 05:17:08;;;;;;;268.95;82.75;;;9.70;65.70;;;;;;5127138;27;20076;-59
2024/01/12 05:19:34;;;;;;;245.18;80.40;;;9.70;66.20;;;;;;5128182;27;20512;-53
2024/01/12 05:22:01;;;;;;;287.25;79.45;;;9.70;67.50;;;;;;5122320;27;20091;-55
2024/01/12 05:24:27;;;;;;;244.98;81.47;;;9.60;66.30;;;;;;5127405;27;20071;-56
2024/01/12 05:26:54;;;;;;;271.98;81.93;;;9.80;66.50;;;;;;5127610;27;20163;-57
2024/01/12 05:29:20;;;;;;;274.25;79.75;;;9.70;65.60;;;;;;5128017;27;20102;-54
2024/01/12 05:31:48;;;;;;;252.77;77.28;;;9.70;66.60;;;;;;5125903;27;20155;-57
2024/01/12 05:34:14;;;;;;;280.60;81.63;;;9.70;67.10;;;;;;5126465;27;20546;-54
2024/01/12 05:36:40;;;;;;;263.02;75.75;;;9.60;66.00;;;;;;5125154;27;20550;-53
2024/01/12 05:39:08;;;;;;;249.95;68.78;;;9.50;65.50;;;;;;5128890;27;20421;-55
2024/01/12 05:41:34;;;;;;;261.55;72.03;;;9.40;65.20;;;;;;5126133;27;20082;-54
2024/01/12 05:44:01;;;;;;;252.68;68.47;;;9.40;65.50;;;;;;5126127;27;20113;-56
2024/01/12 05:46:27;;;;;;;228.25;65.95;;;9.40;65.90;;;;;;5126838;27;20072;-54
2024/01/12 05:48:54;;;;;;;236.80;66.80;;;9.50;65.20;;;;;;5128775;27;20147;-65
2024/01/12 05:51:21;;;;;;;220.25;62.20;;;9.60;65.50;;;;;;5126217;27;20090;-52
2024/01/12 05:53:47;;;;;;;256.67;81.75;;;9.60;65.60;;;;;;5127194;27;20132;-57
2024/01/12 05:56:14;;;;;;;248.13;71.53;;;9.50;65.50;;;;;;5109997;27;20072;-55
2024/01/12 05:58:40;;;;;;;236.02;61.10;;;9.50;66.40;;;;;;5128253;27;20521;-52
2024/01/12 06:01:07;;;;;;;245.95;61.95;;;9.30;67.50;;;;;;5127487;27;20605;-61
2024/01/12 06:03:33;;;;;;;212.82;58.28;;;9.20;66.10;;;;;;5127526;27;20068;-54
2024/01/12 06:06:01;;;;;;;215.65;60.72;;;9.30;65.70;;;;;;5128143;27;20115;-55
2024/01/12 06:08:27;;;;;;;218.02;60.03;;;9.30;64.90;;;;;;5126969;27;20159;-55
2024/01/12 06:10:53;;;;;;;237.85;60.10;;;9.30;64.80;;;;;;5126366;28;20095;-54
2024/01/12 06:13:20;;;;;;;222.55;58.55;;;9.50;65.30;;;;;;5127326;28;20071;-62
2024/01/12 06:15:46;;;;;;;;;;;9.60;65.10;;;;;;5127534;28;20071;-55
2024/01/12 06:18:12;;;;;;;214.45;58.28;;;9.60;66.00;;;;;;5127701;28;19956;-49
2024/01/12 06:20:39;;;;;;;230.77;58.90;;;9.50;66.20;;;;;;5126620;28;20080;-54
2024/01/12 06:23:05;;;;;;;218.07;57.80;;;9.50;66.00;;;;;;5126943;28;20095;-54
2024/01/12 06:25:36;;;;;;;262.27;61.88;;;9.40;66.40;;;;;;5127352;28;20075;-56
2024/01/12 06:28:04;;;;;;;231.20;61.28;;;9.40;66.10;;;;;;5128937;28;20079;-53
2024/01/12 06:30:31;;;;;;;222.20;61.33;;;9.20;66.30;;;;;;5124937;28;20104;-55
2024/01/12 06:32:59;;;;;;;231.57;62.25;;;9.10;66.40;;;;;;5124601;28;20088;-52
2024/01/12 06:35:25;;;;;;;241.23;62.35;;;9.00;66.80;;;;;;5124359;28;20076;-50
2024/01/12 06:37:52;;;;;;;272.55;66.18;;;9.10;67.20;;;;;;5125040;27;20159;-55
2024/01/12 06:40:18;;;;;;;256.67;63.45;;;9.10;67.10;;;;;;5129525;27;20171;-55
2024/01/12 06:42:45;;;;;;;262.25;69.05;;;9.00;66.90;;;;;;5130793;27;20072;-56
2024/01/12 06:45:11;;;;;;;265.77;73.40;;;9.00;66.80;;;;;;5131721;27;20072;-53
2024/01/12 06:47:38;;;;;;;254.90;73.40;;;8.90;66.50;;;;;;5131688;27;20730;-63
2024/01/12 06:50:05;;;;;;;270.88;72.47;;;8.90;66.60;;;;;;5128630;27;20100;-53
2024/01/12 06:52:31;;;;;;;290.77;76.55;;;8.90;66.80;;;;;;5128676;27;20084;-54
2024/01/12 06:54:58;;;;;;;258.35;73.93;;;8.80;66.50;;;;;;5130650;27;20076;-51
2024/01/12 06:57:24;;;;;;;247.55;71.03;;;8.80;66.60;;;;;;5132424;27;20079;-55
2024/01/12 06:59:51;;;;;;;245.93;71.65;;;8.80;66.60;;;;;;5130199;27;20080;-55
2024/01/12 07:02:18;;;;;;;243.82;66.63;;;8.80;66.60;;;;;;5129558;27;20118;-52
2024/01/12 07:04:45;;;;;;;238.95;70.40;;;8.90;66.60;;;;;;5130036;27;20074;-53
2024/01/12 07:07:12;;;;;;;222.95;65.60;;;8.90;66.40;;;;;;5129409;27;20478;-54
2024/01/12 07:09:40;;;;;;;229.65;67.28;;;8.90;66.10;;;;;;5129657;27;20118;-54
2024/01/12 07:12:07;;;;;;;236.23;63.95;;;8.80;66.00;;;;;;5112591;27;20107;-60
2024/01/12 07:14:33;;;;;;;221.13;63.92;;;8.70;66.30;;;;;;5129225;27;20104;-55
2024/01/12 07:16:59;;;;;;;215.73;60.75;;;8.70;67.70;;;;;;5111302;27;20119;-51
2024/01/12 07:19:26;;;;;;;219.95;62.38;;;8.90;67.10;;;;;;5128536;27;20155;-52
2024/01/12 07:21:52;;;;;;;231.60;67.78;;;8.80;65.80;;;;;;5128832;27;20079;-54
2024/01/12 07:24:19;;;;;;;246.82;75.95;;;8.70;65.50;;;;;;5130449;27;20080;-59
2024/01/12 07:26:45;;;;;;;225.00;76.30;;;8.60;65.50;;;;;;5129506;27;20099;-53
2024/01/12 07:29:14;;;;;;;235.95;79.03;;;8.70;66.70;;;;;;5131696;27;20553;-52
2024/01/12 07:31:40;;;;;;;242.57;76.10;;;8.70;67.30;;;;;;5128197;27;20083;-54
2024/01/12 07:34:07;;;;;;;238.20;74.35;;;8.80;66.50;;;;;;5129910;27;20079;-54
2024/01/12 07:36:33;;;;;;;228.75;70.03;;;8.80;66.00;;;;;;5127524;27;20149;-57
2024/01/12 07:39:00;;;;;;;242.45;71.95;;;8.70;65.20;;;;;;5129684;27;20072;-53
2024/01/12 07:41:26;;;;;;;216.45;70.43;;;8.70;65.70;;;;;;5129194;27;20133;-59
2024/01/12 07:43:54;;;;;;;223.63;67.95;;;8.70;66.70;;;;;;5130457;27;20072;-56
2024/01/12 07:46:20;;;;;;;236.43;68.97;;;8.70;67.30;;;;;;5112584;27;20072;-53
2024/01/12 07:48:49;;;;;;;231.18;68.95;;;8.70;67.00;;;;;;5111821;27;20143;-56
2024/01/12 07:51:15;;;;;;;219.57;68.13;;;8.60;66.10;;;;;;5127881;27;20090;-50
2024/01/12 07:53:43;;;;;;;214.48;71.88;;;8.60;65.90;;;;;;5129505;27;20529;-57
2024/01/12 07:56:11;;;;;;;197.57;66.15;;;8.60;67.20;;;;;;5130311;27;20072;-60
2024/01/12 07:58:37;;;;;;;201.80;66.97;;;8.50;66.70;;;;;;5130217;27;20076;-55
2024/01/12 08:01:07;;;;;;;213.65;65.45;;;8.70;66.40;;;;;;5129966;27;20108;-52
2024/01/12 08:03:33;;;;;;;179.13;60.28;;;8.60;65.70;;;;;;5111934;27;20128;-55
2024/01/12 08:06:02;;;;;;;187.05;61.92;;;8.50;65.30;;;;;;5130704;27;20075;-56
2024/01/12 08:08:29;;;;;;;212.88;62.60;;;8.60;65.90;;;;;;5127887;27;20064;-55
2024/01/12 08:10:57;;;;;;;175.93;59.90;;;8.70;65.60;;;;;;5129466;27;20279;-53
2024/01/12 08:13:24;;;;;;;195.45;60.20;;;8.60;65.30;;;;;;5128034;27;20072;-55
2024/01/12 08:15:50;;;;;;;195.82;62.88;;;8.50;65.90;;;;;;5128154;27;20075;-60
2024/01/12 08:18:18;;;;;;;178.30;61.30;;;8.30;64.80;;;;;;5128963;27;20537;-54
2024/01/12 08:20:46;;;;;;;194.43;62.20;;;8.20;65.70;;;;;;5128845;27;20155;-50
2024/01/12 08:23:14;;;;;;;174.57;59.65;;;8.10;66.50;;;;;;5128270;27;20717;-58
2024/01/12 08:25:41;;;;;;;148.52;57.65;;;8.10;66.40;;;;;;5129862;27;20082;-55
2024/01/12 08:28:08;;;;;;;183.80;59.30;;;8.10;66.80;;;;;;5112147;27;20086;-51
2024/01/12 08:30:35;;;;;;;151.85;55.92;;;8.30;67.20;;;;;;5129406;27;20112;-58
2024/01/12 08:33:01;;;;;;;152.48;55.95;;;8.20;67.50;;;;;;5128511;27;20463;-53
2024/01/12 08:35:28;;;;;;;154.98;53.20;;;8.30;66.20;;;;;;5129209;27;20067;-61
2024/01/12 08:37:54;;;;;;;154.73;52.85;;;8.10;65.10;;;;;;5125059;27;20163;-49
2024/01/12 08:40:21;;;;;;;173.82;56.55;;;8.10;65.00;;;;;;5129446;27;20078;-61
2024/01/12 08:42:48;;;;;;;152.07;54.90;;;8.10;64.60;;;;;;5127793;27;20083;-50
2024/01/12 08:45:14;;;;;;;147.60;51.90;;;8.20;66.10;;;;;;5126578;27;20073;-51
2024/01/12 08:47:41;;;;;;;158.13;51.10;;;8.20;66.70;;;;;;5126272;27;20083;-63
2024/01/12 08:50:07;;;;;;;166.10;52.13;;;8.20;65.20;;;;;;5127670;27;20147;-54
2024/01/12 08:52:34;;;;;;;159.38;50.22;;;8.10;64.60;;;;;;5127963;27;20072;-51
2024/01/12 08:55:02;;;;;;;148.38;49.05;;;8.00;64.40;;;;;;5110556;27;20101;-56
2024/01/12 08:57:29;;;;;;;154.18;48.10;;;8.00;64.60;;;;;;5127410;27;20159;-54
2024/01/12 08:59:56;;;;;;;139.05;49.08;;;8.00;64.90;;;;;;5130335;27;20076;-53
2024/01/12 09:02:22;;;;;;;144.50;44.72;;;8.10;65.30;;;;;;5127270;27;20072;-55
2024/01/12 09:04:49;;;;;;;140.20;45.40;;;8.00;66.30;;;;;;5129345;27;20070;-53
2024/01/12 09:07:15;;;;;;;135.60;46.38;;;8.10;65.80;;;;;;5126010;27;20155;-54
2024/01/12 09:09:42;;;;;;;128.70;44.05;;;8.10;65.40;;;;;;5127075;27;20108;-56
2024/01/12 09:12:08;;;;;;;136.38;44.53;;;8.00;65.10;;;;;;5127508;27;20082;-54
2024/01/12 09:14:35;;;;;;;141.65;44.58;;;7.90;65.10;;;;;;5128307;27;20079;-53
2024/01/12 09:17:01;;;;;;;133.18;46.35;;;7.80;65.40;;;;;;5126794;27;20067;-52
2024/01/12 09:19:28;;;;;;;152.35;45.75;;;7.80;65.60;;;;;;5128469;27;20064;-53
2024/01/12 09:21:54;;;;;;;139.15;46.88;;;7.80;65.80;;;;;;5126687;27;20069;-65
2024/01/12 09:24:21;;;;;;;138.52;49.22;;;7.90;66.00;;;;;;5109984;27;20076;-58
2024/01/12 09:26:47;;;;;;;123.70;46.03;;;7.80;65.70;;;;;;5131537;27;20150;-57
2024/01/12 09:29:14;;;;;;;112.28;44.05;;;7.70;67.30;;;;;;5127655;27;20080;-55
2024/01/12 09:31:40;;;;;;;128.88;46.30;;;7.80;66.80;;;;;;5129010;27;20497;-64
2024/01/12 09:34:07;;;;;;;115.68;44.47;;;7.90;65.90;;;;;;5128554;27;20072;-52
2024/01/12 09:36:33;;;;;;;114.03;43.25;;;7.90;65.10;;;;;;5127516;27;20076;-62
2024/01/12 09:39:00;;;;;;;120.85;41.53;;;7.80;65.80;;;;;;5128822;27;20068;-55
2024/01/12 09:41:44;;;;;;;121.72;43.85;;;7.80;66.70;;;;;;5110185;27;20102;-57
2024/01/12 09:44:12;;;;;;;112.20;41.60;;;7.70;66.80;;;;;;5129164;27;20068;-54
2024/01/12 09:46:58;;;;;;;109.57;36.92;;;7.60;66.80;;;;;;5127017;27;20537;-55
2024/01/12 09:49:29;;;;;;;100.57;36.20;;;7.70;67.30;;;;;;5125941;27;20441;-56
2024/01/12 09:52:00;;;;;;;115.68;45.58;;;7.70;66.60;;;;;;5108245;27;20075;-52
2024/01/12 09:54:27;;;;;;;103.05;40.72;;;7.80;66.40;;;;;;5127814;27;20091;-60
2024/01/12 09:56:53;;;;;;;125.65;40.10;;;7.80;65.80;;;;;;5126062;27;20091;-65
2024/01/12 09:59:23;;;;;;;98.75;36.53;;;7.90;66.10;;;;;;5127165;27;20526;-55
2024/01/12 10:01:50;;;;;;;120.72;37.92;;;8.00;66.10;;;;;;5127260;27;20528;-54
2024/01/12 10:04:17;;;;;;;91.93;35.10;;;7.90;66.30;;;;;;5126519;27;20072;-57
2024/01/12 10:06:44;;;;;;;103.38;34.78;;;7.90;66.00;;;;;;5128698;27;20683;-51
2024/01/12 10:09:10;;;;;;;93.63;34.63;;;7.80;65.80;;;;;;5128197;27;20413;-57
2024/01/12 10:11:37;;;;;;;111.65;35.72;;;7.70;65.90;;;;;;5128304;28;20095;-54
2024/01/12 10:14:04;;;;;;;96.00;34.50;;;7.60;66.30;;;;;;5119549;27;20170;-53
2024/01/12 10:16:30;;;;;;;99.38;34.92;;;7.60;67.50;;;;;;5127065;28;20072;-54
2024/01/12 10:19:00;;;;;;;94.22;33.88;;;7.60;68.20;;;;;;5127771;28;20072;-60
2024/01/12 10:21:27;;;;;;;108.43;35.13;;;7.60;67.30;;;;;;5126927;28;20068;-57
2024/01/12 10:24:06;;;;;;;95.78;34.05;;;7.60;67.50;;;;;;5106271;28;20647;-54
2024/01/12 10:26:33;;;;;;;92.30;34.03;;;7.50;67.60;;;;;;5125273;28;20079;-52
2024/01/12 10:29:03;;;;;;;90.35;34.75;;;7.50;68.30;;;;;;5126509;28;21639;-52
2024/01/12 10:31:30;;;;;;;91.25;33.25;;;7.40;68.60;;;;;;5126023;28;20087;-54
2024/01/12 10:34:01;;;;;;;100.68;34.83;;;7.50;68.50;;;;;;5124789;28;20159;-56
2024/01/12 10:36:30;;;;;;;104.28;33.08;;;7.40;68.50;;;;;;5107728;28;20159;-54
2024/01/12 10:39:00;;;;;;;101.03;35.10;;;7.30;68.60;;;;;;5124800;28;20072;-54
2024/01/12 10:41:27;;;;;;;96.25;34.45;;;7.30;69.10;;;;;;5126860;28;20068;-49
2024/01/12 10:43:59;;;;;;;101.65;36.53;;;7.40;69.50;;;;;;5127468;28;20072;-53
2024/01/12 10:46:35;;;;;;;107.20;35.90;;;7.40;68.80;;;;;;5125902;28;20071;-55
2024/01/12 10:49:18;;;;;;;104.50;38.38;;;7.40;68.70;;;;;;5125787;28;20160;-54
2024/01/12 10:52:12;;;;;;;98.90;38.08;;;7.30;68.70;;;;;;5127272;28;20092;-59
2024/01/12 10:54:53;;;;;;;97.07;39.50;;;7.20;68.90;;;;;;5127478;28;20634;-57
2024/01/12 10:57:21;;;;;;;100.60;40.33;;;7.20;69.80;;;;;;5128422;28;20079;-57
2024/01/12 10:59:49;;;;;;;120.78;46.33;;;7.20;70.60;;;;;;5126925;28;20079;-55
2024/01/12 11:02:18;;;;;;;118.70;47.80;;;7.20;69.80;;;;;;5107013;28;20892;-57
2024/01/12 11:04:46;;;;;;;133.55;48.55;;;7.20;69.80;;;;;;5109126;28;20428;-54
2024/01/12 11:07:15;;;;;;;131.60;48.17;;;7.20;70.30;;;;;;5126992;28;20078;-52
2024/01/12 11:09:41;;;;;;;135.95;47.65;;;7.20;70.40;;;;;;5124950;28;20219;-52
2024/01/12 11:12:10;;;;;;;163.45;49.22;;;7.30;70.70;;;;;;5106525;28;20072;-52
2024/01/12 11:14:38;;;;;;;138.27;50.88;;;7.20;70.30;;;;;;5126430;28;20215;-51
2024/01/12 11:17:08;;;;;;;134.77;47.25;;;7.10;71.70;;;;;;5127139;28;20099;-52
2024/01/12 11:19:35;;;;;;;140.25;51.28;;;7.00;71.50;;;;;;5126699;28;20075;-53
2024/01/12 11:22:09;;;;;;;137.88;52.60;;;6.90;71.70;;;;;;5124811;28;20076;-53
2024/01/12 11:24:37;;;;;;;132.43;49.40;;;6.90;71.70;;;;;;5126661;27;20071;-66
2024/01/12 11:27:04;;;;;;;135.98;49.45;;;6.90;71.90;;;;;;5130268;27;20072;-61
2024/01/12 11:29:34;;;;;;;138.93;49.47;;;7.00;72.20;;;;;;5131807;27;20099;-53
2024/01/12 11:32:03;;;;;;;133.50;49.63;;;6.90;71.70;;;;;;5128767;27;20944;-55
2024/01/12 11:34:33;;;;;;;131.13;50.03;;;6.80;72.10;;;;;;5128326;27;20074;-53
2024/01/12 11:37:01;;;;;;;139.55;48.15;;;6.70;72.90;;;;;;5129990;27;20116;-54
2024/01/12 11:39:37;;;;;;;126.07;46.63;;;6.80;72.60;;;;;;5128198;27;20079;-53
2024/01/12 11:42:07;;;;;;;121.57;45.53;;;6.80;72.40;;;;;;5111149;27;20107;-53
2024/01/12 11:44:35;;;;;;;141.10;49.08;;;6.70;72.70;;;;;;5131601;27;20064;-64
2024/01/12 11:47:07;;;;;;;137.57;48.33;;;6.60;73.10;;;;;;5129999;27;20075;-53
2024/01/12 11:49:34;;;;;;;145.48;50.13;;;6.50;73.70;;;;;;5129712;27;20130;-54
2024/01/12 11:52:07;;;;;;;140.25;51.47;;;6.50;73.60;;;;;;5131121;27;20146;-52
2024/01/12 11:54:33;;;;;;;125.75;50.45;;;6.50;73.80;;;;;;5129205;27;20075;-54
2024/01/12 11:57:01;;;;;;;134.43;52.22;;;6.60;73.80;;;;;;5130131;27;20071;-53
2024/01/12 11:59:28;;;;;;;166.35;55.08;;;6.50;73.60;;;;;;5129449;27;20083;-51
2024/01/12 12:01:55;;;;;;;143.02;53.10;;;6.40;73.70;;;;;;5129811;27;20175;-55
2024/01/12 12:04:21;;;;;;;154.45;53.85;;;6.20;74.60;;;;;;5128393;27;20532;-52
2024/01/12 12:06:48;;;;;;;159.43;54.85;;;6.30;75.20;;;;;;5112106;27;20079;-58
2024/01/12 12:09:15;;;;;;;131.35;50.30;;;6.30;75.50;;;;;;5127522;27;20522;-56
2024/01/12 12:11:41;;;;;;;147.75;52.33;;;6.20;75.80;;;;;;5109966;27;20555;-54
2024/01/12 12:14:08;;;;;;;148.13;54.35;;;6.30;75.90;;;;;;5124616;27;20071;-56
2024/01/12 12:16:35;;;;;;;154.88;60.80;;;6.30;75.90;;;;;;5129975;27;20162;-51
2024/01/12 12:19:02;;;;;;;136.95;58.67;;;6.20;76.30;;;;;;5130121;27;20083;-56
2024/01/12 12:21:29;;;;;;;153.77;56.20;;;6.20;76.20;;;;;;5126665;27;20433;-61
2024/01/12 12:23:55;;;;;;;162.52;56.17;;;6.20;76.30;;;;;;5132724;27;20148;-56
2024/01/12 12:26:22;;;;;;;148.68;54.92;;;6.20;76.80;;;;;;5134338;27;20084;-55
2024/01/12 12:28:48;;;;;;;137.45;55.05;;;6.10;77.00;;;;;;5130283;27;20076;-52
2024/01/12 12:31:16;;;;;;;160.43;60.15;;;6.10;77.40;;;;;;5129019;27;20110;-54